createdAt,value
2023-09-04T00:00:44.641Z,314
2023-09-04T00:01:44.647Z,314
2023-09-04T00:02:44.661Z,314
2023-09-04T00:03:44.640Z,314
2023-09-04T00:04:44.634Z,314
2023-09-04T00:05:44.632Z,314
2023-09-04T00:06:44.665Z,314
2023-09-04T00:07:44.609Z,314
2023-09-04T00:08:44.668Z,314
2023-09-04T00:09:44.654Z,312
2023-09-04T00:10:44.654Z,312
2023-09-04T00:11:44.688Z,312
2023-09-04T00:12:44.694Z,312
2023-09-04T00:13:44.635Z,311
2023-09-04T00:14:44.671Z,311
2023-09-04T00:15:44.657Z,312
2023-09-04T00:16:44.689Z,312
2023-09-04T00:17:44.707Z,312
2023-09-04T00:18:44.663Z,312
2023-09-04T00:19:44.707Z,312
2023-09-04T00:20:44.673Z,312
2023-09-04T00:21:44.752Z,312
2023-09-04T00:22:44.717Z,311
2023-09-04T00:23:44.698Z,311
2023-09-04T00:24:44.754Z,310
2023-09-04T00:25:44.726Z,310
2023-09-04T00:26:44.787Z,310
2023-09-04T00:27:44.708Z,310
2023-09-04T00:28:44.725Z,310
2023-09-04T00:29:44.743Z,310
2023-09-04T00:30:44.753Z,310
2023-09-04T00:31:44.727Z,310
2023-09-04T00:32:44.711Z,310
2023-09-04T00:33:44.764Z,310
2023-09-04T00:34:44.761Z,310
2023-09-04T00:35:44.747Z,310
2023-09-04T00:36:44.782Z,310
2023-09-04T00:37:44.788Z,310
2023-09-04T00:38:44.753Z,310
2023-09-04T00:39:44.743Z,310
2023-09-04T00:40:44.771Z,309
2023-09-04T00:41:44.804Z,309
2023-09-04T00:42:44.763Z,309
2023-09-04T00:43:44.798Z,309
2023-09-04T00:44:44.766Z,309
2023-09-04T00:45:44.864Z,309
2023-09-04T00:46:44.825Z,309
2023-09-04T00:47:44.828Z,309
2023-09-04T00:48:44.818Z,309
2023-09-04T00:49:44.831Z,309
2023-09-04T00:50:44.810Z,308
2023-09-04T00:51:44.849Z,308
2023-09-04T00:52:44.831Z,308
2023-09-04T00:53:44.837Z,308
2023-09-04T00:54:44.824Z,308
2023-09-04T00:55:44.813Z,308
2023-09-04T00:56:44.883Z,308
2023-09-04T00:57:44.849Z,308
2023-09-04T00:58:44.853Z,308
2023-09-04T00:59:44.834Z,308
2023-09-04T01:00:44.870Z,308
2023-09-04T01:01:44.869Z,308
2023-09-04T01:02:44.936Z,308
2023-09-04T01:03:44.854Z,307
2023-09-04T01:04:44.890Z,308
2023-09-04T01:05:44.869Z,307
2023-09-04T01:06:44.911Z,307
2023-09-04T01:07:44.871Z,307
2023-09-04T01:08:44.905Z,307
2023-09-04T01:09:44.897Z,307
2023-09-04T01:10:44.910Z,307
2023-09-04T01:11:44.902Z,307
2023-09-04T01:12:44.884Z,307
2023-09-04T01:13:44.938Z,307
2023-09-04T01:14:44.891Z,307
2023-09-04T01:15:44.947Z,307
2023-09-04T01:16:44.974Z,307
2023-09-04T01:17:45.074Z,307
2023-09-04T01:18:45.071Z,307
2023-09-04T01:19:44.952Z,307
2023-09-04T01:20:44.970Z,307
2023-09-04T01:21:45.005Z,307
2023-09-04T01:22:44.972Z,307
2023-09-04T01:23:44.955Z,307
2023-09-04T01:24:44.962Z,307
2023-09-04T01:25:44.959Z,307
2023-09-04T01:26:45.001Z,307
2023-09-04T01:27:45.036Z,307
2023-09-04T01:28:44.982Z,307
2023-09-04T01:29:44.952Z,307
2023-09-04T01:30:45.039Z,307
2023-09-04T01:31:45.015Z,307
2023-09-04T01:32:45.008Z,307
2023-09-04T01:33:44.977Z,307
2023-09-04T01:34:44.972Z,307
2023-09-04T01:35:44.997Z,307
2023-09-04T01:36:45.030Z,307
2023-09-04T01:37:45.019Z,307
2023-09-04T01:38:45.042Z,308
2023-09-04T01:39:44.992Z,308
2023-09-04T01:40:45.043Z,308
2023-09-04T01:41:45.029Z,308
2023-09-04T01:42:45.027Z,308
2023-09-04T01:43:45.044Z,308
2023-09-04T01:44:44.993Z,308
2023-09-04T01:45:45.024Z,308
2023-09-04T01:46:45.150Z,307
2023-09-04T01:47:45.071Z,307
2023-09-04T01:48:45.079Z,307
2023-09-04T01:49:45.045Z,308
2023-09-04T01:50:45.063Z,309
2023-09-04T01:51:45.078Z,309
2023-09-04T01:52:45.073Z,308
2023-09-04T01:53:45.100Z,307
2023-09-04T01:54:45.089Z,308
2023-09-04T01:55:45.112Z,309
2023-09-04T01:56:45.130Z,309
2023-09-04T01:57:45.085Z,309
2023-09-04T01:58:45.111Z,309
2023-09-04T01:59:45.095Z,309
2023-09-04T02:00:45.083Z,309
2023-09-04T02:01:45.162Z,309
2023-09-04T02:02:45.260Z,310
2023-09-04T02:03:45.122Z,310
2023-09-04T02:04:45.153Z,310
2023-09-04T02:05:45.102Z,310
2023-09-04T02:06:45.175Z,310
2023-09-04T02:07:45.135Z,310
2023-09-04T02:08:45.098Z,310
2023-09-04T02:09:45.132Z,310
2023-09-04T02:10:45.084Z,310
2023-09-04T02:11:45.185Z,310
2023-09-04T02:12:45.148Z,310
2023-09-04T02:13:45.133Z,310
2023-09-04T02:14:45.385Z,310
2023-09-04T02:15:45.229Z,310
2023-09-04T02:16:45.158Z,310
2023-09-04T02:17:45.220Z,310
2023-09-04T02:18:45.171Z,310
2023-09-04T02:19:45.171Z,310
2023-09-04T02:20:45.207Z,310
2023-09-04T02:21:45.192Z,310
2023-09-04T02:22:45.238Z,310
2023-09-04T02:23:45.214Z,310
2023-09-04T02:24:45.214Z,310
2023-09-04T02:25:45.197Z,310
2023-09-04T02:26:45.215Z,310
2023-09-04T02:27:45.298Z,310
2023-09-04T02:28:45.231Z,310
2023-09-04T02:29:45.241Z,310
2023-09-04T02:30:45.224Z,310
2023-09-04T02:31:45.294Z,310
2023-09-04T02:32:45.267Z,310
2023-09-04T02:33:45.239Z,310
2023-09-04T02:34:45.255Z,310
2023-09-04T02:35:45.247Z,310
2023-09-04T02:36:45.296Z,310
2023-09-04T02:37:45.271Z,310
2023-09-04T02:38:45.251Z,310
2023-09-04T02:39:45.276Z,310
2023-09-04T02:40:45.225Z,310
2023-09-04T02:41:45.264Z,310
2023-09-04T02:42:45.235Z,310
2023-09-04T02:43:45.309Z,310
2023-09-04T02:44:45.286Z,310
2023-09-04T02:45:45.340Z,310
2023-09-04T02:46:45.289Z,310
2023-09-04T02:47:45.336Z,310
2023-09-04T02:48:45.288Z,310
2023-09-04T02:49:45.310Z,310
2023-09-04T02:50:45.324Z,310
2023-09-04T02:51:45.320Z,311
2023-09-04T02:52:45.357Z,312
2023-09-04T02:53:45.337Z,312
2023-09-04T02:54:45.322Z,312
2023-09-04T02:55:45.339Z,312
2023-09-04T02:56:45.349Z,313
2023-09-04T02:57:45.362Z,313
2023-09-04T02:58:45.326Z,313
2023-09-04T02:59:45.354Z,313
2023-09-04T03:00:45.450Z,313
2023-09-04T03:01:45.373Z,313
2023-09-04T03:02:45.476Z,313
2023-09-04T03:03:45.381Z,313
2023-09-04T03:04:45.346Z,313
2023-09-04T03:05:45.363Z,313
2023-09-04T03:06:45.390Z,313
2023-09-04T03:07:45.357Z,313
2023-09-04T03:08:45.436Z,313
2023-09-04T03:09:45.382Z,313
2023-09-04T03:10:45.369Z,313
2023-09-04T03:11:45.427Z,313
2023-09-04T03:12:45.401Z,313
2023-09-04T03:13:45.431Z,313
2023-09-04T03:14:45.387Z,313
2023-09-04T03:15:45.404Z,313
2023-09-04T03:16:45.457Z,313
2023-09-04T03:17:45.479Z,313
2023-09-04T03:18:45.417Z,313
2023-09-04T03:19:45.485Z,313
2023-09-04T03:20:45.455Z,313
2023-09-04T03:21:45.445Z,313
2023-09-04T03:22:45.428Z,313
2023-09-04T03:23:45.481Z,313
2023-09-04T03:24:45.478Z,313
2023-09-04T03:25:45.491Z,313
2023-09-04T03:26:45.487Z,313
2023-09-04T03:27:45.468Z,313
2023-09-04T03:28:45.481Z,313
2023-09-04T03:29:45.505Z,313
2023-09-04T03:30:45.526Z,313
2023-09-04T03:31:45.497Z,313
2023-09-04T03:32:45.529Z,313
2023-09-04T03:33:45.537Z,314
2023-09-04T03:34:45.508Z,314
2023-09-04T03:35:45.485Z,314
2023-09-04T03:36:45.508Z,314
2023-09-04T03:37:45.520Z,314
2023-09-04T03:38:45.536Z,314
2023-09-04T03:39:45.528Z,314
2023-09-04T03:40:45.508Z,314
2023-09-04T03:41:45.538Z,314
2023-09-04T03:42:45.523Z,314
2023-09-04T03:43:45.623Z,314
2023-09-04T03:44:45.546Z,314
2023-09-04T03:45:45.582Z,314
2023-09-04T03:46:45.605Z,314
2023-09-04T03:47:45.598Z,314
2023-09-04T03:48:45.627Z,314
2023-09-04T03:49:45.567Z,314
2023-09-04T03:50:45.580Z,314
2023-09-04T03:51:45.573Z,314
2023-09-04T03:52:45.576Z,314
2023-09-04T03:53:45.552Z,314
2023-09-04T03:54:45.573Z,314
2023-09-04T03:55:45.531Z,314
2023-09-04T03:56:45.567Z,314
2023-09-04T03:57:45.620Z,314
2023-09-04T03:58:45.603Z,314
2023-09-04T03:59:45.572Z,314
2023-09-04T04:00:45.621Z,314
2023-09-04T04:01:45.626Z,313
2023-09-04T04:02:45.700Z,313
2023-09-04T04:03:45.731Z,313
2023-09-04T04:04:45.631Z,314
2023-09-04T04:05:45.632Z,315
2023-09-04T04:06:45.693Z,316
2023-09-04T04:07:45.646Z,317
2023-09-04T04:08:45.663Z,318
2023-09-04T04:09:45.619Z,318
2023-09-04T04:10:45.701Z,319
2023-09-04T04:11:45.663Z,319
2023-09-04T04:12:45.670Z,319
2023-09-04T04:13:45.685Z,318
2023-09-04T04:14:45.662Z,318
2023-09-04T04:15:45.659Z,318
2023-09-04T04:16:45.711Z,318
2023-09-04T04:17:45.716Z,318
2023-09-04T04:18:45.721Z,318
2023-09-04T04:19:45.683Z,318
2023-09-04T04:20:45.706Z,318
2023-09-04T04:21:45.665Z,318
2023-09-04T04:22:45.687Z,318
2023-09-04T04:23:47.272Z,318
2023-09-04T04:24:45.742Z,318
2023-09-04T04:25:45.715Z,318
2023-09-04T04:26:45.717Z,318
2023-09-04T04:27:45.726Z,318
2023-09-04T04:28:45.746Z,318
2023-09-04T04:29:45.710Z,318
2023-09-04T04:30:45.736Z,318
2023-09-04T04:31:45.784Z,318
2023-09-04T04:32:45.724Z,318
2023-09-04T04:33:45.788Z,318
2023-09-04T04:34:45.776Z,318
2023-09-04T04:35:45.732Z,318
2023-09-04T04:36:45.773Z,318
2023-09-04T04:37:45.779Z,318
2023-09-04T04:38:45.764Z,317
2023-09-04T04:39:45.787Z,317
2023-09-04T04:40:45.783Z,317
2023-09-04T04:41:45.800Z,317
2023-09-04T04:42:45.765Z,316
2023-09-04T04:43:45.794Z,316
2023-09-04T04:44:45.760Z,315
2023-09-04T04:45:45.812Z,315
2023-09-04T04:46:45.785Z,314
2023-09-04T04:47:45.873Z,313
2023-09-04T04:48:45.840Z,313
2023-09-04T04:49:45.809Z,313
2023-09-04T04:50:45.789Z,313
2023-09-04T04:51:45.817Z,313
2023-09-04T04:52:45.830Z,313
2023-09-04T04:53:45.799Z,313
2023-09-04T04:54:45.797Z,313
2023-09-04T04:55:45.785Z,314
2023-09-04T04:56:45.830Z,314
2023-09-04T04:57:45.860Z,314
2023-09-04T04:58:45.880Z,314
2023-09-04T04:59:45.842Z,314
2023-09-04T05:00:45.820Z,314
2023-09-04T05:01:45.969Z,314
2023-09-04T05:02:45.903Z,314
2023-09-04T05:03:45.904Z,314
2023-09-04T05:04:45.924Z,314
2023-09-04T05:05:45.894Z,314
2023-09-04T05:06:45.866Z,314
2023-09-04T05:07:45.862Z,314
2023-09-04T05:08:45.903Z,314
2023-09-04T05:09:45.847Z,314
2023-09-04T05:10:45.901Z,314
2023-09-04T05:11:45.910Z,314
2023-09-04T05:12:45.929Z,314
2023-09-04T05:13:45.983Z,314
2023-09-04T05:14:45.930Z,314
2023-09-04T05:15:45.941Z,314
2023-09-04T05:16:45.921Z,314
2023-09-04T05:17:45.999Z,314
2023-09-04T05:18:45.930Z,314
2023-09-04T05:19:45.931Z,314
2023-09-04T05:20:45.952Z,314
2023-09-04T05:21:56.410Z,314
2023-09-04T05:22:45.954Z,314
2023-09-04T05:23:45.956Z,314
2023-09-04T05:24:45.963Z,314
2023-09-04T05:25:45.969Z,314
2023-09-04T05:26:45.984Z,314
2023-09-04T05:27:45.996Z,314
2023-09-04T05:28:45.987Z,314
2023-09-04T05:29:45.975Z,314
2023-09-04T05:30:45.972Z,314
2023-09-04T05:31:46.006Z,314
2023-09-04T05:32:45.994Z,314
2023-09-04T05:33:45.985Z,314
2023-09-04T05:34:46.015Z,314
2023-09-04T05:35:45.968Z,314
2023-09-04T05:36:46.018Z,314
2023-09-04T05:37:45.998Z,314
2023-09-04T05:38:46.052Z,314
2023-09-04T05:39:45.987Z,314
2023-09-04T05:40:46.013Z,314
2023-09-04T05:41:46.055Z,314
2023-09-04T05:42:46.010Z,314
2023-09-04T05:43:46.034Z,314
2023-09-04T05:44:46.028Z,314
2023-09-04T05:45:46.051Z,314
2023-09-04T05:46:46.105Z,314
2023-09-04T05:47:46.078Z,314
2023-09-04T05:48:46.051Z,314
2023-09-04T05:49:46.048Z,314
2023-09-04T05:50:48.742Z,314
2023-09-04T05:51:46.092Z,314
2023-09-04T05:52:46.083Z,314
2023-09-04T05:53:46.070Z,314
2023-09-04T05:54:46.070Z,314
2023-09-04T05:55:46.145Z,314
2023-09-04T05:56:46.178Z,314
2023-09-04T05:57:46.080Z,314
2023-09-04T05:58:46.105Z,314
2023-09-04T05:59:46.109Z,314
2023-09-04T06:00:46.128Z,314
2023-09-04T06:01:46.114Z,314
2023-09-04T06:02:46.164Z,314
2023-09-04T06:03:46.247Z,314
2023-09-04T06:04:46.127Z,314
2023-09-04T06:05:46.101Z,314
2023-09-04T06:06:46.201Z,314
2023-09-04T06:07:46.167Z,314
2023-09-04T06:08:46.137Z,314
2023-09-04T06:09:46.612Z,314
2023-09-04T06:10:46.117Z,314
2023-09-04T06:11:46.226Z,314
2023-09-04T06:12:46.153Z,314
2023-09-04T06:13:46.224Z,314
2023-09-04T06:14:46.146Z,314
2023-09-04T06:15:46.204Z,314
2023-09-04T06:16:46.228Z,314
2023-09-04T06:17:46.210Z,314
2023-09-04T06:18:46.228Z,314
2023-09-04T06:19:46.184Z,315
2023-09-04T06:20:46.227Z,315
2023-09-04T06:21:46.253Z,315
2023-09-04T06:22:46.208Z,315
2023-09-04T06:23:46.226Z,315
2023-09-04T06:24:46.223Z,315
2023-09-04T06:25:46.234Z,315
2023-09-04T06:26:46.244Z,315
2023-09-04T06:27:46.233Z,315
2023-09-04T06:28:46.254Z,315
2023-09-04T06:29:46.271Z,315
2023-09-04T06:30:46.387Z,315
2023-09-04T06:31:46.277Z,315
2023-09-04T06:32:46.319Z,315
2023-09-04T06:33:46.341Z,315
2023-09-04T06:34:46.281Z,315
2023-09-04T06:35:46.254Z,315
2023-09-04T06:36:46.289Z,315
2023-09-04T06:37:46.298Z,315
2023-09-04T06:38:46.295Z,315
2023-09-04T06:39:46.280Z,315
2023-09-04T06:40:46.303Z,315
2023-09-04T06:41:46.293Z,314
2023-09-04T06:42:46.310Z,314
2023-09-04T06:43:46.380Z,314
2023-09-04T06:44:46.302Z,314
2023-09-04T06:45:46.285Z,314
2023-09-04T06:46:46.296Z,314
2023-09-04T06:47:46.317Z,314
2023-09-04T06:48:46.355Z,315
2023-09-04T06:49:46.303Z,315
2023-09-04T06:50:46.327Z,315
2023-09-04T06:51:46.351Z,315
2023-09-04T06:52:46.332Z,314
2023-09-04T06:53:46.337Z,314
2023-09-04T06:54:46.337Z,314
2023-09-04T06:55:46.361Z,314
2023-09-04T06:56:46.353Z,314
2023-09-04T06:57:46.348Z,314
2023-09-04T06:58:46.359Z,314
2023-09-04T06:59:46.362Z,313
2023-09-04T07:00:46.371Z,313
2023-09-04T07:01:46.417Z,313
2023-09-04T07:02:46.452Z,313
2023-09-04T07:03:46.432Z,313
2023-09-04T07:04:46.371Z,312
2023-09-04T07:05:46.368Z,312
2023-09-04T07:06:46.456Z,312
2023-09-04T07:07:46.396Z,312
2023-09-04T07:08:46.385Z,309
2023-09-04T07:09:46.414Z,309
2023-09-04T07:10:46.406Z,309
2023-09-04T07:11:46.385Z,309
2023-09-04T07:12:46.371Z,309
2023-09-04T07:13:46.442Z,309
2023-09-04T07:14:46.393Z,309
2023-09-04T07:15:46.462Z,309
2023-09-04T07:17:46.501Z,309
2023-09-04T07:18:47.014Z,309
2023-09-04T07:19:46.436Z,309
2023-09-04T07:20:46.455Z,309
2023-09-04T07:21:46.474Z,309
2023-09-04T07:22:46.420Z,309
2023-09-04T07:23:46.465Z,309
2023-09-04T07:24:46.460Z,310
2023-09-04T07:25:46.420Z,310
2023-09-04T07:26:46.442Z,310
2023-09-04T07:27:46.446Z,310
2023-09-04T07:28:46.467Z,311
2023-09-04T07:29:46.486Z,311
2023-09-04T07:30:46.497Z,311
2023-09-04T07:31:46.472Z,311
2023-09-04T07:32:46.495Z,311
2023-09-04T07:33:46.453Z,311
2023-09-04T07:34:46.515Z,311
2023-09-04T07:35:46.541Z,311
2023-09-04T07:36:46.516Z,311
2023-09-04T07:37:46.534Z,311
2023-09-04T07:38:46.524Z,312
2023-09-04T07:39:46.496Z,312
2023-09-04T07:40:46.494Z,313
2023-09-04T07:41:46.537Z,315
2023-09-04T07:42:46.573Z,316
2023-09-04T07:43:46.594Z,316
2023-09-04T07:44:46.564Z,316
2023-09-04T07:45:46.533Z,316
2023-09-04T07:46:46.539Z,316
2023-09-04T07:47:46.601Z,316
2023-09-04T07:48:46.600Z,316
2023-09-04T07:49:46.576Z,316
2023-09-04T07:50:46.579Z,316
2023-09-04T07:51:46.553Z,317
2023-09-04T07:52:46.537Z,317
2023-09-04T07:53:46.611Z,319
2023-09-04T07:54:46.621Z,319
2023-09-04T07:55:46.584Z,319
2023-09-04T07:56:46.592Z,319
2023-09-04T07:57:46.594Z,319
2023-09-04T07:58:46.630Z,320
2023-09-04T07:59:46.604Z,319
2023-09-04T08:00:46.652Z,319
2023-09-04T08:01:46.641Z,318
2023-09-04T08:02:46.644Z,318
2023-09-04T08:03:46.685Z,319
2023-09-04T08:04:46.645Z,319
2023-09-04T08:05:46.614Z,319
2023-09-04T08:06:46.619Z,316
2023-09-04T08:07:46.647Z,316
2023-09-04T08:08:46.670Z,315
2023-09-04T08:09:46.647Z,316
2023-09-04T08:10:46.677Z,316
2023-09-04T08:11:46.627Z,317
2023-09-04T08:12:46.653Z,317
2023-09-04T08:13:46.657Z,317
2023-09-04T08:14:46.683Z,317
2023-09-04T08:15:46.670Z,317
2023-09-04T08:16:46.678Z,317
2023-09-04T08:17:46.721Z,317
2023-09-04T08:18:46.731Z,317
2023-09-04T08:19:46.688Z,317
2023-09-04T08:20:46.668Z,317
2023-09-04T08:21:46.712Z,317
2023-09-04T08:22:46.711Z,317
2023-09-04T08:23:46.709Z,317
2023-09-04T08:24:46.718Z,317
2023-09-04T08:25:46.696Z,317
2023-09-04T08:26:46.697Z,317
2023-09-04T08:27:46.729Z,317
2023-09-04T08:28:46.722Z,317
2023-09-04T08:29:46.796Z,317
2023-09-04T08:30:46.772Z,316
2023-09-04T08:31:46.700Z,316
2023-09-04T08:32:46.727Z,316
2023-09-04T08:33:46.780Z,316
2023-09-04T08:34:46.751Z,316
2023-09-04T08:35:46.720Z,316
2023-09-04T08:36:46.782Z,316
2023-09-04T08:37:46.769Z,316
2023-09-04T08:38:46.814Z,316
2023-09-04T08:39:46.760Z,316
2023-09-04T08:40:46.791Z,316
2023-09-04T08:41:46.784Z,316
2023-09-04T08:42:46.791Z,316
2023-09-04T08:43:46.786Z,316
2023-09-04T08:44:46.773Z,316
2023-09-04T08:45:46.808Z,316
2023-09-04T08:46:46.917Z,316
2023-09-04T08:47:46.807Z,316
2023-09-04T08:48:46.867Z,316
2023-09-04T08:49:46.843Z,316
2023-09-04T08:50:46.813Z,316
2023-09-04T08:51:46.813Z,316
2023-09-04T08:52:46.810Z,316
2023-09-04T08:53:46.891Z,316
2023-09-04T08:54:46.826Z,316
2023-09-04T08:55:46.816Z,316
2023-09-04T08:56:46.844Z,316
2023-09-04T08:57:46.855Z,316
2023-09-04T08:58:46.886Z,316
2023-09-04T08:59:46.855Z,316
2023-09-04T09:00:46.866Z,316
2023-09-04T09:01:46.850Z,316
2023-09-04T09:02:46.999Z,316
2023-09-04T09:03:46.911Z,316
2023-09-04T09:04:46.868Z,316
2023-09-04T09:05:46.868Z,316
2023-09-04T09:06:46.926Z,316
2023-09-04T09:07:46.856Z,316
2023-09-04T09:08:46.905Z,316
2023-09-04T09:09:46.919Z,314
2023-09-04T09:10:46.923Z,314
2023-09-04T09:11:46.887Z,314
2023-09-04T09:12:46.882Z,314
2023-09-04T09:13:46.922Z,314
2023-09-04T09:14:46.873Z,314
2023-09-04T09:15:46.912Z,314
2023-09-04T09:16:46.956Z,314
2023-09-04T09:17:46.991Z,314
2023-09-04T09:18:46.976Z,314
2023-09-04T09:19:46.944Z,314
2023-09-04T09:20:46.937Z,314
2023-09-04T09:21:46.946Z,314
2023-09-04T09:22:46.955Z,314
2023-09-04T09:23:46.988Z,314
2023-09-04T09:24:47.057Z,314
2023-09-04T09:25:46.908Z,314
2023-09-04T09:26:46.947Z,314
2023-09-04T09:27:46.981Z,314
2023-09-04T09:28:46.993Z,314
2023-09-04T09:29:46.963Z,314
2023-09-04T09:30:47.003Z,314
2023-09-04T09:31:47.511Z,314
2023-09-04T09:32:47.018Z,314
2023-09-04T09:33:47.043Z,314
2023-09-04T09:34:46.962Z,314
2023-09-04T09:35:46.983Z,314
2023-09-04T09:36:47.009Z,314
2023-09-04T09:37:46.995Z,314
2023-09-04T09:38:47.037Z,314
2023-09-04T09:39:46.983Z,314
2023-09-04T09:40:47.044Z,314
2023-09-04T09:41:47.013Z,314
2023-09-04T09:42:47.012Z,314
2023-09-04T09:43:47.071Z,314
2023-09-04T09:44:47.002Z,314
2023-09-04T09:45:47.103Z,314
2023-09-04T09:46:47.039Z,314
2023-09-04T09:47:47.078Z,314
2023-09-04T09:48:47.070Z,314
2023-09-04T09:49:47.062Z,314
2023-09-04T09:50:47.063Z,314
2023-09-04T09:51:47.067Z,314
2023-09-04T09:52:47.046Z,315
2023-09-04T09:53:47.102Z,315
2023-09-04T09:54:47.087Z,317
2023-09-04T09:55:47.000Z,316
2023-09-04T09:56:47.122Z,315
2023-09-04T09:57:47.095Z,315
2023-09-04T09:58:47.084Z,315
2023-09-04T09:59:47.111Z,315
2023-09-04T10:00:47.093Z,315
2023-09-04T10:01:47.156Z,315
2023-09-04T10:02:47.228Z,315
2023-09-04T10:03:47.186Z,314
2023-09-04T10:04:47.104Z,314
2023-09-04T10:05:47.089Z,314
2023-09-04T10:06:47.138Z,314
2023-09-04T10:07:47.147Z,314
2023-09-04T10:08:47.143Z,314
2023-09-04T10:09:47.125Z,315
2023-09-04T10:10:47.122Z,315
2023-09-04T10:11:48.667Z,315
2023-09-04T10:12:47.143Z,315
2023-09-04T10:13:47.169Z,315
2023-09-04T10:14:47.107Z,315
2023-09-04T10:15:47.194Z,315
2023-09-04T10:16:47.156Z,315
2023-09-04T10:17:47.221Z,314
2023-09-04T10:18:47.164Z,314
2023-09-04T10:19:47.211Z,314
2023-09-04T10:20:47.176Z,314
2023-09-04T10:21:47.166Z,314
2023-09-04T10:22:47.169Z,314
2023-09-04T10:23:47.230Z,314
2023-09-04T10:24:47.192Z,314
2023-09-04T10:25:47.193Z,314
2023-09-04T10:26:47.198Z,314
2023-09-04T10:27:47.195Z,314
2023-09-04T10:28:47.183Z,314
2023-09-04T10:29:47.218Z,314
2023-09-04T10:30:47.266Z,314
2023-09-04T10:31:47.252Z,314
2023-09-04T10:32:47.248Z,314
2023-09-04T10:33:47.262Z,314
2023-09-04T10:34:47.280Z,314
2023-09-04T10:35:47.253Z,315
2023-09-04T10:36:47.250Z,314
2023-09-04T10:37:47.246Z,314
2023-09-04T10:38:47.328Z,314
2023-09-04T10:39:50.627Z,313
2023-09-04T10:40:47.255Z,313
2023-09-04T10:41:47.304Z,313
2023-09-04T10:42:47.306Z,313
2023-09-04T10:43:47.325Z,312
2023-09-04T10:44:47.353Z,311
2023-09-04T10:45:47.299Z,311
2023-09-04T10:46:47.326Z,310
2023-09-04T10:47:47.354Z,310
2023-09-04T10:48:47.450Z,310
2023-09-04T10:49:47.290Z,310
2023-09-04T10:50:47.349Z,310
2023-09-04T10:51:47.367Z,310
2023-09-04T10:52:47.287Z,310
2023-09-04T10:53:47.349Z,310
2023-09-04T10:54:47.437Z,309
2023-09-04T10:55:47.297Z,309
2023-09-04T10:56:47.326Z,309
2023-09-04T10:57:47.338Z,309
2023-09-04T10:58:47.376Z,309
2023-09-04T10:59:47.357Z,309
2023-09-04T11:00:47.388Z,309
2023-09-04T11:01:47.392Z,309
2023-09-04T11:02:47.398Z,309
2023-09-04T11:03:47.384Z,309
2023-09-04T11:04:47.411Z,309
2023-09-04T11:05:47.331Z,309
2023-09-04T11:06:47.438Z,309
2023-09-04T11:07:47.419Z,309
2023-09-04T11:08:47.414Z,309
2023-09-04T11:09:47.409Z,309
2023-09-04T11:10:47.390Z,309
2023-09-04T11:11:47.471Z,309
2023-09-04T11:12:47.422Z,309
2023-09-04T11:13:47.424Z,309
2023-09-04T11:14:47.435Z,309
2023-09-04T11:15:47.404Z,309
2023-09-04T11:16:47.446Z,309
2023-09-04T11:17:47.476Z,309
2023-09-04T11:18:47.443Z,309
2023-09-04T11:19:47.434Z,309
2023-09-04T11:20:47.415Z,309
2023-09-04T11:21:47.441Z,309
2023-09-04T11:22:47.414Z,308
2023-09-04T11:23:49.536Z,308
2023-09-04T11:24:47.547Z,308
2023-09-04T11:25:47.453Z,308
2023-09-04T11:26:47.467Z,308
2023-09-04T11:27:47.497Z,308
2023-09-04T11:28:47.524Z,308
2023-09-04T11:29:47.477Z,308
2023-09-04T11:30:47.482Z,308
2023-09-04T11:31:59.279Z,308
2023-09-04T11:32:47.643Z,308
2023-09-04T11:33:47.570Z,308
2023-09-04T11:34:47.490Z,308
2023-09-04T11:35:47.486Z,308
2023-09-04T11:36:47.529Z,308
2023-09-04T11:37:47.520Z,308
2023-09-04T11:38:47.509Z,308
2023-09-04T11:39:47.513Z,308
2023-09-04T11:40:47.488Z,308
2023-09-04T11:41:47.546Z,308
2023-09-04T11:42:47.584Z,307
2023-09-04T11:43:47.550Z,307
2023-09-04T11:44:47.540Z,307
2023-09-04T11:45:47.589Z,307
2023-09-04T11:46:47.552Z,307
2023-09-04T11:47:47.590Z,307
2023-09-04T11:48:47.579Z,307
2023-09-04T11:49:47.559Z,307
2023-09-04T11:50:47.593Z,307
2023-09-04T11:51:47.594Z,307
2023-09-04T11:52:47.592Z,307
2023-09-04T11:53:47.572Z,307
2023-09-04T11:54:47.597Z,307
2023-09-04T11:55:47.574Z,307
2023-09-04T11:56:47.543Z,307
2023-09-04T11:57:47.556Z,307
2023-09-04T11:58:47.584Z,307
2023-09-04T11:59:47.567Z,307
2023-09-04T12:00:47.604Z,307
2023-09-04T12:01:47.734Z,307
2023-09-04T12:02:47.881Z,307
2023-09-04T12:03:47.636Z,307
2023-09-04T12:04:47.899Z,307
2023-09-04T12:05:47.644Z,307
2023-09-04T12:06:47.670Z,307
2023-09-04T12:07:47.635Z,307
2023-09-04T12:08:47.624Z,307
2023-09-04T12:09:47.668Z,307
2023-09-04T12:10:47.659Z,307
2023-09-04T12:11:47.663Z,307
2023-09-04T12:12:47.634Z,307
2023-09-04T12:13:47.695Z,307
2023-09-04T12:14:47.667Z,307
2023-09-04T12:15:47.679Z,307
2023-09-04T12:16:47.715Z,307
2023-09-04T12:17:47.729Z,307
2023-09-04T12:18:47.654Z,307
2023-09-04T12:19:47.698Z,307
2023-09-04T12:21:47.704Z,307
2023-09-04T12:22:47.784Z,307
2023-09-04T12:23:47.818Z,307
2023-09-04T12:24:47.701Z,307
2023-09-04T12:25:47.716Z,307
2023-09-04T12:26:47.761Z,307
2023-09-04T12:27:47.706Z,307
2023-09-04T12:28:47.740Z,306
2023-09-04T12:29:47.712Z,306
2023-09-04T12:30:47.739Z,306
2023-09-04T12:31:47.763Z,306
2023-09-04T12:32:47.757Z,306
2023-09-04T12:33:48.088Z,306
2023-09-04T12:34:47.736Z,306
2023-09-04T12:35:47.778Z,306
2023-09-04T12:36:47.735Z,306
2023-09-04T12:37:47.771Z,306
2023-09-04T12:38:47.751Z,306
2023-09-04T12:39:47.729Z,306
2023-09-04T12:40:47.785Z,306
2023-09-04T12:41:47.781Z,306
2023-09-04T12:42:47.781Z,306
2023-09-04T12:43:48.933Z,305
2023-09-04T12:44:47.772Z,305
2023-09-04T12:45:47.852Z,305
2023-09-04T12:46:47.809Z,305
2023-09-04T12:47:47.833Z,305
2023-09-04T12:48:47.833Z,305
2023-09-04T12:49:47.813Z,305
2023-09-04T12:50:47.815Z,305
2023-09-04T12:51:47.865Z,305
2023-09-04T12:52:47.839Z,305
2023-09-04T12:53:47.828Z,305
2023-09-04T12:54:47.823Z,305
2023-09-04T12:55:47.828Z,305
2023-09-04T12:56:47.859Z,305
2023-09-04T12:57:47.838Z,305
2023-09-04T12:58:47.836Z,305
2023-09-04T12:59:47.832Z,305
2023-09-04T13:00:47.898Z,305
2023-09-04T13:01:47.901Z,305
2023-09-04T13:02:47.901Z,305
2023-09-04T13:03:47.904Z,305
2023-09-04T13:04:47.866Z,305
2023-09-04T13:05:47.852Z,305
2023-09-04T13:06:47.867Z,304
2023-09-04T13:07:47.892Z,304
2023-09-04T13:08:47.928Z,303
2023-09-04T13:09:47.899Z,304
2023-09-04T13:10:47.899Z,304
2023-09-04T13:11:47.864Z,303
2023-09-04T13:12:47.899Z,303
2023-09-04T13:13:48.004Z,303
2023-09-04T13:14:47.901Z,303
2023-09-04T13:15:47.943Z,303
2023-09-04T13:16:47.951Z,303
2023-09-04T13:17:47.982Z,302
2023-09-04T13:18:47.927Z,302
2023-09-04T13:19:48.031Z,302
2023-09-04T13:20:47.937Z,302
2023-09-04T13:21:47.969Z,302
2023-09-04T13:22:47.973Z,302
2023-09-04T13:23:47.988Z,302
2023-09-04T13:24:47.944Z,302
2023-09-04T13:25:48.081Z,302
2023-09-04T13:26:47.943Z,302
2023-09-04T13:27:47.994Z,303
2023-09-04T13:28:47.963Z,303
2023-09-04T13:29:47.979Z,303
2023-09-04T13:30:48.007Z,303
2023-09-04T13:31:47.968Z,303
2023-09-04T13:32:48.037Z,303
2023-09-04T13:33:47.983Z,303
2023-09-04T13:34:47.992Z,303
2023-09-04T13:35:48.014Z,303
2023-09-04T13:36:48.041Z,303
2023-09-04T13:37:48.013Z,303
2023-09-04T13:38:48.002Z,303
2023-09-04T13:39:47.957Z,303
2023-09-04T13:40:48.067Z,303
2023-09-04T13:41:47.981Z,303
2023-09-04T13:42:48.012Z,303
2023-09-04T13:43:48.046Z,303
2023-09-04T13:44:47.995Z,303
2023-09-04T13:45:48.028Z,303
2023-09-04T13:46:48.075Z,303
2023-09-04T13:47:48.115Z,303
2023-09-04T13:48:48.064Z,303